JBU241 KMCO-MYNN
Flight info
| Callsign | JBU241 |
|---|---|
| Flight time | 0h 50m |
| Altitude | 31000 |
| Route | DDANY3 JIPOD DCT JUNIP DCT ZFP BR63V ZQA |
| Aircraft | A320/M-SDE3FGHIRWY/LB1 |
Departure
| Time | 2026-05-08 00:52 |
|---|---|
| Airport | Orlando International Airport (KMCO) |
Arrival
| Time | 2026-05-08 01:43 |
|---|---|
| Airport | Lynden Pindling International Airport (MYNN) |
| Time | Latitude | Longitude | Altitude | Speed | Heading |
|---|---|---|---|---|---|
| 2026-05-08 00:18 | 28.41561 | -81.31444 | 90 ft | 0 kts | 100° |
| 2026-05-08 00:45 | 28.41563 | -81.31455 | 94 ft | 4 kts | 96° |
| 2026-05-08 00:45 | 28.41563 | -81.31486 | 94 ft | 4 kts | 78° |
| 2026-05-08 00:45 | 28.41555 | -81.31514 | 94 ft | 4 kts | 57° |
| 2026-05-08 00:46 | 28.41537 | -81.31537 | 95 ft | 4 kts | 34° |
| 2026-05-08 00:46 | 28.41513 | -81.31551 | 93 ft | 4 kts | 14° |
| 2026-05-08 00:46 | 28.41499 | -81.31554 | 93 ft | 0 kts | 6° |
| 2026-05-08 00:48 | 28.41508 | -81.31553 | 93 ft | 4 kts | 7° |
| 2026-05-08 00:49 | 28.41559 | -81.31564 | 95 ft | 10 kts | 346° |
| 2026-05-08 00:49 | 28.41614 | -81.31615 | 95 ft | 12 kts | 295° |
| 2026-05-08 00:49 | 28.41657 | -81.31691 | 98 ft | 11 kts | 305° |
| 2026-05-08 00:49 | 28.41703 | -81.31773 | 98 ft | 14 kts | 319° |
| 2026-05-08 00:50 | 28.41756 | -81.31859 | 98 ft | 15 kts | 271° |
| 2026-05-08 00:50 | 28.41737 | -81.31972 | 99 ft | 15 kts | 215° |
| 2026-05-08 00:50 | 28.41628 | -81.31980 | 97 ft | 17 kts | 180° |
| 2026-05-08 00:50 | 28.41545 | -81.32042 | 98 ft | 16 kts | 261° |
| 2026-05-08 00:51 | 28.41544 | -81.32169 | 97 ft | 11 kts | 276° |
| 2026-05-08 00:51 | 28.41660 | -81.32198 | 98 ft | 41 kts | 359° |
| 2026-05-08 00:51 | 28.42170 | -81.32204 | 100 ft | 103 kts | 360° |
| 2026-05-08 00:51 | 28.43056 | -81.32213 | 97 ft | 151 kts | 359° |
| 2026-05-08 00:52 | 28.44213 | -81.32222 | 328 ft | 170 kts | 358° |
| 2026-05-08 00:52 | 28.45389 | -81.32203 | 987 ft | 171 kts | 4° |
| 2026-05-08 00:52 | 28.46524 | -81.31688 | 1455 ft | 186 kts | 35° |
| 2026-05-08 00:52 | 28.47323 | -81.30435 | 1704 ft | 211 kts | 65° |
| 2026-05-08 00:53 | 28.47875 | -81.28795 | 1926 ft | 234 kts | 67° |
| 2026-05-08 00:53 | 28.48502 | -81.26957 | 2134 ft | 262 kts | 67° |
| 2026-05-08 00:53 | 28.49193 | -81.24976 | 2716 ft | 274 kts | 67° |
| 2026-05-08 00:53 | 28.49910 | -81.22944 | 3541 ft | 278 kts | 68° |
| 2026-05-08 00:54 | 28.50465 | -81.20834 | 4393 ft | 280 kts | 84° |
| 2026-05-08 00:54 | 28.50344 | -81.18639 | 5241 ft | 280 kts | 107° |
| 2026-05-08 00:54 | 28.49557 | -81.16615 | 6047 ft | 282 kts | 119° |
| 2026-05-08 00:54 | 28.48635 | -81.14634 | 6739 ft | 288 kts | 119° |
| 2026-05-08 00:55 | 28.47676 | -81.12600 | 7430 ft | 293 kts | 119° |
| 2026-05-08 00:55 | 28.46706 | -81.10544 | 8120 ft | 298 kts | 119° |
| 2026-05-08 00:55 | 28.45719 | -81.08446 | 8788 ft | 304 kts | 120° |
| 2026-05-08 00:55 | 28.44712 | -81.06308 | 9439 ft | 310 kts | 120° |
| 2026-05-08 00:56 | 28.43686 | -81.04131 | 10051 ft | 316 kts | 120° |
| 2026-05-08 00:56 | 28.42616 | -81.01872 | 10311 ft | 335 kts | 120° |
| 2026-05-08 00:56 | 28.41475 | -80.99463 | 10475 ft | 355 kts | 120° |
| 2026-05-08 00:56 | 28.40296 | -80.96963 | 10937 ft | 363 kts | 120° |
| 2026-05-08 00:57 | 28.39115 | -80.94451 | 11500 ft | 367 kts | 120° |
| 2026-05-08 00:57 | 28.37907 | -80.91881 | 12094 ft | 370 kts | 120° |
| 2026-05-08 00:57 | 28.36688 | -80.89297 | 12682 ft | 374 kts | 120° |
| 2026-05-08 00:57 | 28.35452 | -80.86685 | 13266 ft | 377 kts | 120° |
| 2026-05-08 00:58 | 28.34209 | -80.84054 | 13857 ft | 380 kts | 120° |
| 2026-05-08 00:58 | 28.32951 | -80.81395 | 14354 ft | 384 kts | 120° |
| 2026-05-08 00:58 | 28.31678 | -80.78702 | 14814 ft | 389 kts | 120° |
| 2026-05-08 00:58 | 28.30390 | -80.75983 | 15305 ft | 393 kts | 120° |
| 2026-05-08 00:59 | 28.29090 | -80.73238 | 15790 ft | 397 kts | 120° |
| 2026-05-08 00:59 | 28.27777 | -80.70462 | 16277 ft | 401 kts | 120° |
| 2026-05-08 00:59 | 28.26454 | -80.67660 | 16770 ft | 405 kts | 120° |
| 2026-05-08 00:59 | 28.25113 | -80.64823 | 17265 ft | 410 kts | 120° |
| 2026-05-08 01:00 | 28.23757 | -80.61966 | 17759 ft | 414 kts | 120° |
| 2026-05-08 01:00 | 28.22399 | -80.59121 | 18246 ft | 418 kts | 120° |
| 2026-05-08 01:00 | 28.21008 | -80.56214 | 18679 ft | 421 kts | 120° |
| 2026-05-08 01:00 | 28.19607 | -80.53282 | 19140 ft | 424 kts | 120° |
| 2026-05-08 01:01 | 28.18200 | -80.50327 | 19615 ft | 427 kts | 120° |
| 2026-05-08 01:01 | 28.16782 | -80.47348 | 20094 ft | 430 kts | 120° |
| 2026-05-08 01:01 | 28.15353 | -80.44353 | 20570 ft | 433 kts | 120° |
| 2026-05-08 01:01 | 28.13915 | -80.41340 | 21033 ft | 437 kts | 120° |
| 2026-05-08 01:02 | 28.12466 | -80.38302 | 21498 ft | 440 kts | 120° |
| 2026-05-08 01:02 | 28.10951 | -80.35278 | 21965 ft | 442 kts | 126° |
| 2026-05-08 01:02 | 28.09071 | -80.32530 | 22399 ft | 442 kts | 136° |
| 2026-05-08 01:02 | 28.06818 | -80.30185 | 22835 ft | 440 kts | 147° |
| 2026-05-08 01:03 | 28.04284 | -80.28243 | 23265 ft | 440 kts | 152° |
| 2026-05-08 01:03 | 28.01696 | -80.26364 | 23670 ft | 443 kts | 152° |
| 2026-05-08 01:03 | 27.99095 | -80.24471 | 24027 ft | 446 kts | 152° |
| 2026-05-08 01:03 | 27.96479 | -80.22564 | 24386 ft | 448 kts | 152° |
| 2026-05-08 01:04 | 27.93853 | -80.20647 | 24740 ft | 451 kts | 152° |
| 2026-05-08 01:04 | 27.91210 | -80.18718 | 25095 ft | 453 kts | 152° |
| 2026-05-08 01:04 | 27.88558 | -80.16786 | 25451 ft | 455 kts | 152° |
| 2026-05-08 01:04 | 27.85891 | -80.14841 | 25794 ft | 457 kts | 152° |
| 2026-05-08 01:05 | 27.83210 | -80.12888 | 26136 ft | 460 kts | 152° |
| 2026-05-08 01:05 | 27.80516 | -80.10928 | 26477 ft | 462 kts | 152° |
| 2026-05-08 01:05 | 27.77809 | -80.08959 | 26798 ft | 464 kts | 152° |
| 2026-05-08 01:05 | 27.75092 | -80.06985 | 27119 ft | 466 kts | 152° |
| 2026-05-08 01:06 | 27.72354 | -80.04999 | 27435 ft | 468 kts | 152° |
| 2026-05-08 01:06 | 27.69607 | -80.03008 | 27748 ft | 470 kts | 152° |
| 2026-05-08 01:06 | 27.66853 | -80.01012 | 28064 ft | 472 kts | 152° |
| 2026-05-08 01:06 | 27.64083 | -79.99004 | 28383 ft | 474 kts | 152° |
| 2026-05-08 01:07 | 27.61301 | -79.96989 | 28702 ft | 476 kts | 152° |
| 2026-05-08 01:07 | 27.58504 | -79.94967 | 29020 ft | 479 kts | 152° |
| 2026-05-08 01:07 | 27.55698 | -79.92939 | 29340 ft | 481 kts | 152° |
| 2026-05-08 01:07 | 27.52876 | -79.90901 | 29648 ft | 483 kts | 152° |
| 2026-05-08 01:08 | 27.50040 | -79.88854 | 29962 ft | 485 kts | 152° |
| 2026-05-08 01:08 | 27.47194 | -79.86798 | 30241 ft | 487 kts | 152° |
| 2026-05-08 01:08 | 27.44336 | -79.84736 | 30520 ft | 488 kts | 151° |
| 2026-05-08 01:08 | 27.41482 | -79.82675 | 30875 ft | 488 kts | 151° |
| 2026-05-08 01:09 | 27.38630 | -79.80615 | 30993 ft | 486 kts | 151° |
| 2026-05-08 01:09 | 27.33049 | -79.76590 | 31025 ft | 472 kts | 152° |
| 2026-05-08 01:10 | 27.27534 | -79.72620 | 31029 ft | 471 kts | 149° |
| 2026-05-08 01:10 | 27.22693 | -79.67615 | 31031 ft | 478 kts | 130° |
| 2026-05-08 01:11 | 27.18660 | -79.61655 | 31028 ft | 479 kts | 129° |
| 2026-05-08 01:11 | 27.14618 | -79.55711 | 31026 ft | 479 kts | 130° |
| 2026-05-08 01:12 | 27.10561 | -79.49776 | 31029 ft | 479 kts | 130° |
| 2026-05-08 01:12 | 27.06501 | -79.43835 | 31035 ft | 479 kts | 129° |
| 2026-05-08 01:13 | 27.02449 | -79.37895 | 31039 ft | 479 kts | 129° |
| 2026-05-08 01:13 | 26.98391 | -79.31965 | 31041 ft | 479 kts | 129° |
| 2026-05-08 01:14 | 26.94336 | -79.26044 | 31043 ft | 479 kts | 129° |
| 2026-05-08 01:14 | 26.90276 | -79.20127 | 31044 ft | 479 kts | 129° |
| 2026-05-08 01:15 | 26.86214 | -79.14217 | 31046 ft | 479 kts | 129° |
| 2026-05-08 01:15 | 26.82157 | -79.08306 | 31050 ft | 479 kts | 129° |
| 2026-05-08 01:16 | 26.78097 | -79.02401 | 31052 ft | 478 kts | 129° |
| 2026-05-08 01:16 | 26.74031 | -78.96501 | 31059 ft | 478 kts | 129° |
| 2026-05-08 01:17 | 26.69966 | -78.90617 | 31062 ft | 478 kts | 129° |
| 2026-05-08 01:17 | 26.65892 | -78.84739 | 31064 ft | 478 kts | 129° |
| 2026-05-08 01:18 | 26.61822 | -78.78867 | 31063 ft | 478 kts | 129° |
| 2026-05-08 01:18 | 26.59800 | -78.75944 | 30910 ft | 472 kts | 129° |
| 2026-05-08 01:18 | 26.57813 | -78.73073 | 30678 ft | 462 kts | 129° |
| 2026-05-08 01:18 | 26.55857 | -78.70249 | 30445 ft | 457 kts | 129° |
| 2026-05-08 01:19 | 26.53913 | -78.67455 | 30213 ft | 455 kts | 130° |
| 2026-05-08 01:19 | 26.51956 | -78.64677 | 29964 ft | 453 kts | 130° |
| 2026-05-08 01:19 | 26.50002 | -78.61932 | 29693 ft | 451 kts | 130° |
| 2026-05-08 01:19 | 26.48048 | -78.59202 | 29423 ft | 449 kts | 130° |
| 2026-05-08 01:20 | 26.46100 | -78.56485 | 29159 ft | 447 kts | 130° |
| 2026-05-08 01:20 | 26.44165 | -78.53782 | 28895 ft | 445 kts | 130° |
| 2026-05-08 01:20 | 26.42239 | -78.51083 | 28637 ft | 444 kts | 130° |
| 2026-05-08 01:20 | 26.40321 | -78.48387 | 28392 ft | 440 kts | 130° |
| 2026-05-08 01:21 | 26.38431 | -78.45728 | 28015 ft | 437 kts | 130° |
| 2026-05-08 01:21 | 26.36545 | -78.43074 | 27591 ft | 436 kts | 130° |
| 2026-05-08 01:21 | 26.34666 | -78.40430 | 27185 ft | 434 kts | 130° |
| 2026-05-08 01:21 | 26.32792 | -78.37796 | 26774 ft | 433 kts | 130° |
| 2026-05-08 01:22 | 26.30919 | -78.35171 | 26370 ft | 432 kts | 130° |
| 2026-05-08 01:22 | 26.29049 | -78.32553 | 25963 ft | 431 kts | 130° |
| 2026-05-08 01:22 | 26.27181 | -78.29938 | 25539 ft | 431 kts | 130° |
| 2026-05-08 01:22 | 26.25315 | -78.27334 | 25116 ft | 430 kts | 130° |
| 2026-05-08 01:23 | 26.23449 | -78.24729 | 24688 ft | 430 kts | 130° |
| 2026-05-08 01:23 | 26.21583 | -78.22122 | 24242 ft | 431 kts | 130° |
| 2026-05-08 01:23 | 26.19718 | -78.19515 | 23796 ft | 431 kts | 130° |
| 2026-05-08 01:23 | 26.17846 | -78.16900 | 23276 ft | 432 kts | 130° |
| 2026-05-08 01:24 | 26.15978 | -78.14292 | 22812 ft | 430 kts | 130° |
| 2026-05-08 01:24 | 26.14116 | -78.11698 | 22339 ft | 428 kts | 130° |
| 2026-05-08 01:24 | 26.12268 | -78.09126 | 21953 ft | 424 kts | 129° |
| 2026-05-08 01:24 | 26.10430 | -78.06566 | 21559 ft | 420 kts | 129° |
| 2026-05-08 01:25 | 26.08622 | -78.04046 | 21161 ft | 415 kts | 129° |
| 2026-05-08 01:25 | 26.06835 | -78.01559 | 20465 ft | 410 kts | 129° |
| 2026-05-08 01:25 | 26.05061 | -77.99092 | 20110 ft | 405 kts | 129° |
| 2026-05-08 01:25 | 26.03319 | -77.96669 | 19472 ft | 398 kts | 129° |
| 2026-05-08 01:26 | 26.01599 | -77.94282 | 19016 ft | 394 kts | 129° |
| 2026-05-08 01:26 | 25.99886 | -77.91910 | 18568 ft | 392 kts | 129° |
| 2026-05-08 01:26 | 25.98184 | -77.89553 | 18166 ft | 388 kts | 128° |
| 2026-05-08 01:26 | 25.97072 | -77.88009 | 17820 ft | 387 kts | 128° |
| 2026-05-08 01:27 | 25.94835 | -77.84909 | 17221 ft | 381 kts | 129° |
| 2026-05-08 01:27 | 25.93746 | -77.83400 | 16883 ft | 373 kts | 129° |
| 2026-05-08 01:27 | 25.92139 | -77.81177 | 16471 ft | 368 kts | 128° |
| 2026-05-08 01:27 | 25.90543 | -77.78967 | 16032 ft | 366 kts | 128° |
| 2026-05-08 01:28 | 25.88933 | -77.76741 | 15591 ft | 364 kts | 128° |
| 2026-05-08 01:28 | 25.87354 | -77.74557 | 15165 ft | 362 kts | 128° |
| 2026-05-08 01:28 | 25.85785 | -77.72387 | 14747 ft | 360 kts | 128° |
| 2026-05-08 01:28 | 25.84223 | -77.70226 | 14317 ft | 358 kts | 128° |
| 2026-05-08 01:29 | 25.82669 | -77.68076 | 13893 ft | 356 kts | 128° |
| 2026-05-08 01:29 | 25.81124 | -77.65937 | 13441 ft | 354 kts | 128° |
| 2026-05-08 01:29 | 25.79613 | -77.63848 | 13027 ft | 341 kts | 128° |
| 2026-05-08 01:29 | 25.78135 | -77.61803 | 12627 ft | 339 kts | 128° |
| 2026-05-08 01:30 | 25.76666 | -77.59773 | 12225 ft | 337 kts | 128° |
| 2026-05-08 01:30 | 25.75201 | -77.57751 | 11813 ft | 335 kts | 128° |
| 2026-05-08 01:30 | 25.73740 | -77.55743 | 11416 ft | 334 kts | 128° |
| 2026-05-08 01:30 | 25.72293 | -77.53758 | 11194 ft | 326 kts | 128° |
| 2026-05-08 01:31 | 25.70891 | -77.51840 | 10991 ft | 314 kts | 129° |
| 2026-05-08 01:31 | 25.69332 | -77.50184 | 10462 ft | 311 kts | 144° |
| 2026-05-08 01:31 | 25.67463 | -77.49067 | 10095 ft | 308 kts | 159° |
| 2026-05-08 01:31 | 25.65399 | -77.48514 | 9500 ft | 305 kts | 175° |
| 2026-05-08 01:32 | 25.63314 | -77.48396 | 9098 ft | 296 kts | 177° |
| 2026-05-08 01:32 | 25.61253 | -77.48277 | 8729 ft | 297 kts | 177° |
| 2026-05-08 01:32 | 25.59186 | -77.48146 | 8354 ft | 297 kts | 177° |
| 2026-05-08 01:32 | 25.57122 | -77.48012 | 7982 ft | 298 kts | 177° |
| 2026-05-08 01:33 | 25.55065 | -77.47877 | 7610 ft | 292 kts | 177° |
| 2026-05-08 01:33 | 25.53077 | -77.47790 | 7260 ft | 281 kts | 184° |
| 2026-05-08 01:33 | 25.51157 | -77.48128 | 6914 ft | 279 kts | 198° |
| 2026-05-08 01:33 | 25.49352 | -77.48908 | 6580 ft | 279 kts | 205° |
| 2026-05-08 01:34 | 25.47563 | -77.49748 | 6218 ft | 280 kts | 204° |
| 2026-05-08 01:34 | 25.45767 | -77.50575 | 5861 ft | 280 kts | 204° |
| 2026-05-08 01:34 | 25.43971 | -77.51395 | 5547 ft | 278 kts | 204° |
| 2026-05-08 01:34 | 25.42200 | -77.52209 | 5181 ft | 273 kts | 204° |
| 2026-05-08 01:35 | 25.40480 | -77.53009 | 4837 ft | 266 kts | 204° |
| 2026-05-08 01:35 | 25.38770 | -77.53801 | 4487 ft | 266 kts | 204° |
| 2026-05-08 01:35 | 25.37062 | -77.54588 | 4146 ft | 266 kts | 204° |
| 2026-05-08 01:35 | 25.35389 | -77.55356 | 3985 ft | 252 kts | 204° |
| 2026-05-08 01:36 | 25.33830 | -77.56075 | 3795 ft | 237 kts | 204° |
| 2026-05-08 01:36 | 25.32326 | -77.56772 | 3633 ft | 233 kts | 204° |
| 2026-05-08 01:36 | 25.30830 | -77.57469 | 3516 ft | 233 kts | 204° |
| 2026-05-08 01:36 | 25.29337 | -77.58165 | 3394 ft | 233 kts | 203° |
| 2026-05-08 01:37 | 25.27845 | -77.58861 | 3280 ft | 233 kts | 203° |
| 2026-05-08 01:37 | 25.26354 | -77.59553 | 3153 ft | 232 kts | 203° |
| 2026-05-08 01:37 | 25.24863 | -77.60244 | 3026 ft | 232 kts | 203° |
| 2026-05-08 01:37 | 25.23350 | -77.60942 | 2904 ft | 232 kts | 202° |
| 2026-05-08 01:38 | 25.21857 | -77.61626 | 2784 ft | 232 kts | 202° |
| 2026-05-08 01:38 | 25.20299 | -77.62043 | 2669 ft | 228 kts | 182° |
| 2026-05-08 01:38 | 25.18749 | -77.61842 | 2531 ft | 223 kts | 162° |
| 2026-05-08 01:38 | 25.17380 | -77.61076 | 2416 ft | 221 kts | 141° |
| 2026-05-08 01:39 | 25.16272 | -77.59910 | 2294 ft | 220 kts | 134° |
| 2026-05-08 01:39 | 25.15207 | -77.58722 | 2167 ft | 214 kts | 134° |
| 2026-05-08 01:39 | 25.14179 | -77.57575 | 2080 ft | 204 kts | 134° |
| 2026-05-08 01:39 | 25.13228 | -77.56516 | 2014 ft | 187 kts | 134° |
| 2026-05-08 01:40 | 25.12333 | -77.55520 | 1909 ft | 180 kts | 134° |
| 2026-05-08 01:40 | 25.11460 | -77.54548 | 1718 ft | 177 kts | 134° |
| 2026-05-08 01:40 | 25.10597 | -77.53588 | 1507 ft | 175 kts | 134° |
| 2026-05-08 01:40 | 25.09749 | -77.52645 | 1284 ft | 169 kts | 134° |
| 2026-05-08 01:41 | 25.08960 | -77.51768 | 1089 ft | 153 kts | 134° |
| 2026-05-08 01:41 | 25.08231 | -77.50957 | 895 ft | 146 kts | 134° |
| 2026-05-08 01:41 | 25.07523 | -77.50169 | 713 ft | 143 kts | 133° |
| 2026-05-08 01:41 | 25.06823 | -77.49391 | 523 ft | 143 kts | 133° |
| 2026-05-08 01:42 | 25.06124 | -77.48612 | 323 ft | 143 kts | 132° |
| 2026-05-08 01:42 | 25.05425 | -77.47838 | 139 ft | 142 kts | 131° |
| 2026-05-08 01:42 | 25.04749 | -77.47080 | 28 ft | 127 kts | 134° |
| 2026-05-08 01:42 | 25.04250 | -77.46531 | 21 ft | 78 kts | 135° |
| 2026-05-08 01:43 | 25.03962 | -77.46211 | 23 ft | 49 kts | 134° |
| 2026-05-08 01:43 | 25.03792 | -77.46020 | 23 ft | 15 kts | 135° |
| 2026-05-08 01:43 | 25.03765 | -77.45957 | 23 ft | 11 kts | 84° |
| 2026-05-08 01:43 | 25.03811 | -77.45884 | 24 ft | 13 kts | 44° |
| 2026-05-08 01:44 | 25.03897 | -77.45880 | 22 ft | 16 kts | 316° |
| 2026-05-08 01:44 | 25.03982 | -77.45970 | 24 ft | 18 kts | 315° |
| 2026-05-08 01:44 | 25.04078 | -77.46075 | 24 ft | 21 kts | 315° |
| 2026-05-08 01:44 | 25.04185 | -77.46194 | 22 ft | 21 kts | 315° |
| 2026-05-08 01:45 | 25.04292 | -77.46314 | 22 ft | 23 kts | 315° |
| 2026-05-08 01:45 | 25.04410 | -77.46446 | 24 ft | 25 kts | 314° |
| 2026-05-08 01:45 | 25.04531 | -77.46580 | 22 ft | 23 kts | 315° |
| 2026-05-08 01:45 | 25.04646 | -77.46709 | 24 ft | 22 kts | 315° |
| 2026-05-08 01:46 | 25.04750 | -77.46821 | 23 ft | 19 kts | 315° |
| 2026-05-08 01:46 | 25.04833 | -77.46913 | 23 ft | 16 kts | 314° |
| 2026-05-08 01:46 | 25.04920 | -77.46921 | 22 ft | 14 kts | 54° |
| 2026-05-08 01:46 | 25.04947 | -77.46816 | 22 ft | 12 kts | 112° |
| 2026-05-08 01:47 | 25.04903 | -77.46779 | 22 ft | 3 kts | 147° |
| 2026-05-08 01:47 | 25.04900 | -77.46776 | 22 ft | 0 kts | 147° |
| 2026-05-08 01:50 | 25.04899 | -77.46776 | 22 ft | 0 kts | 147° |